sensor_id;sensor_type;location;lat;lon;timestamp;P1;durP1;ratioP1;P2;durP2;ratioP2
69170;SDS011;56279;47.902;12.308;2022-10-16T00:00:23;2.67;;;1.70;;
69170;SDS011;56279;47.902;12.308;2022-10-16T00:02:24;3.25;;;1.70;;
69170;SDS011;56279;47.902;12.308;2022-10-16T00:04:25;3.17;;;1.60;;
69170;SDS011;56279;47.902;12.308;2022-10-16T00:06:27;3.17;;;1.52;;
69170;SDS011;56279;47.902;12.308;2022-10-16T00:08:29;3.40;;;1.67;;
69170;SDS011;56279;47.902;12.308;2022-10-16T00:10:31;5.97;;;1.97;;
69170;SDS011;56279;47.902;12.308;2022-10-16T00:12:32;2.88;;;1.67;;
69170;SDS011;56279;47.902;12.308;2022-10-16T00:14:34;4.53;;;1.70;;
69170;SDS011;56279;47.902;12.308;2022-10-16T00:16:35;3.17;;;1.55;;
69170;SDS011;56279;47.902;12.308;2022-10-16T00:18:36;5.53;;;1.73;;
69170;SDS011;56279;47.902;12.308;2022-10-16T00:20:39;4.13;;;1.70;;
69170;SDS011;56279;47.902;12.308;2022-10-16T00:22:59;6.78;;;1.80;;
69170;SDS011;56279;47.902;12.308;2022-10-16T00:25:00;3.47;;;1.73;;
69170;SDS011;56279;47.902;12.308;2022-10-16T00:27:03;3.03;;;1.67;;
69170;SDS011;56279;47.902;12.308;2022-10-16T00:29:05;4.63;;;1.80;;
69170;SDS011;56279;47.902;12.308;2022-10-16T00:31:09;4.77;;;1.70;;
69170;SDS011;56279;47.902;12.308;2022-10-16T00:33:11;5.95;;;2.08;;
69170;SDS011;56279;47.902;12.308;2022-10-16T00:35:13;4.63;;;1.75;;
69170;SDS011;56279;47.902;12.308;2022-10-16T00:37:14;3.42;;;1.70;;
69170;SDS011;56279;47.902;12.308;2022-10-16T00:39:15;3.80;;;1.60;;
69170;SDS011;56279;47.902;12.308;2022-10-16T00:41:17;3.13;;;1.50;;
69170;SDS011;56279;47.902;12.308;2022-10-16T00:45:50;7.07;;;2.10;;
69170;SDS011;56279;47.902;12.308;2022-10-16T00:47:51;3.35;;;2.00;;
69170;SDS011;56279;47.902;12.308;2022-10-16T00:49:58;3.90;;;2.35;;
69170;SDS011;56279;47.902;12.308;2022-10-16T00:52:03;4.20;;;1.77;;
69170;SDS011;56279;47.902;12.308;2022-10-16T00:54:07;2.67;;;1.50;;
69170;SDS011;56279;47.902;12.308;2022-10-16T00:56:11;2.80;;;1.65;;
69170;SDS011;56279;47.902;12.308;2022-10-16T00:58:12;3.10;;;1.80;;
69170;SDS011;56279;47.902;12.308;2022-10-16T01:00:16;4.25;;;1.50;;
69170;SDS011;56279;47.902;12.308;2022-10-16T01:02:22;5.33;;;1.77;;
69170;SDS011;56279;47.902;12.308;2022-10-16T01:04:24;4.32;;;1.60;;
69170;SDS011;56279;47.902;12.308;2022-10-16T01:06:49;11.27;;;2.22;;
69170;SDS011;56279;47.902;12.308;2022-10-16T01:09:08;3.17;;;1.50;;
69170;SDS011;56279;47.902;12.308;2022-10-16T01:11:33;3.63;;;1.42;;
69170;SDS011;56279;47.902;12.308;2022-10-16T01:13:41;5.60;;;1.73;;
69170;SDS011;56279;47.902;12.308;2022-10-16T01:15:48;3.65;;;1.73;;
69170;SDS011;56279;47.902;12.308;2022-10-16T01:18:01;4.90;;;1.70;;
69170;SDS011;56279;47.902;12.308;2022-10-16T01:22:19;4.07;;;1.90;;
69170;SDS011;56279;47.902;12.308;2022-10-16T01:24:40;4.43;;;1.60;;
69170;SDS011;56279;47.902;12.308;2022-10-16T01:26:50;6.63;;;1.60;;
69170;SDS011;56279;47.902;12.308;2022-10-16T01:31:07;2.90;;;1.52;;
69170;SDS011;56279;47.902;12.308;2022-10-16T01:33:17;2.10;;;1.30;;
69170;SDS011;56279;47.902;12.308;2022-10-16T01:35:27;3.47;;;1.80;;
69170;SDS011;56279;47.902;12.308;2022-10-16T01:39:34;3.13;;;1.75;;
69170;SDS011;56279;47.902;12.308;2022-10-16T01:41:41;3.22;;;1.70;;
69170;SDS011;56279;47.902;12.308;2022-10-16T01:43:50;3.60;;;1.60;;
69170;SDS011;56279;47.902;12.308;2022-10-16T01:45:57;2.87;;;1.63;;
69170;SDS011;56279;47.902;12.308;2022-10-16T01:48:01;3.22;;;1.58;;
69170;SDS011;56279;47.902;12.308;2022-10-16T01:50:06;5.60;;;1.70;;
69170;SDS011;56279;47.902;12.308;2022-10-16T01:52:13;3.10;;;1.60;;
69170;SDS011;56279;47.902;12.308;2022-10-16T01:54:18;4.50;;;1.80;;
69170;SDS011;56279;47.902;12.308;2022-10-16T01:56:21;4.90;;;1.50;;
69170;SDS011;56279;47.902;12.308;2022-10-16T01:58:25;4.50;;;1.60;;
69170;SDS011;56279;47.902;12.308;2022-10-16T02:00:27;4.88;;;1.75;;
69170;SDS011;56279;47.902;12.308;2022-10-16T02:02:31;3.47;;;1.67;;
69170;SDS011;56279;47.902;12.308;2022-10-16T02:04:34;2.92;;;1.50;;
69170;SDS011;56279;47.902;12.308;2022-10-16T02:06:40;2.73;;;1.47;;
69170;SDS011;56279;47.902;12.308;2022-10-16T02:08:41;6.85;;;1.75;;
69170;SDS011;56279;47.902;12.308;2022-10-16T02:10:44;4.80;;;1.58;;
69170;SDS011;56279;47.902;12.308;2022-10-16T02:12:56;3.55;;;2.03;;
69170;SDS011;56279;47.902;12.308;2022-10-16T02:15:02;7.63;;;1.92;;
69170;SDS011;56279;47.902;12.308;2022-10-16T02:17:11;3.17;;;1.70;;
69170;SDS011;56279;47.902;12.308;2022-10-16T02:19:17;4.88;;;1.88;;
69170;SDS011;56279;47.902;12.308;2022-10-16T02:21:25;3.50;;;1.90;;
69170;SDS011;56279;47.902;12.308;2022-10-16T02:23:37;2.45;;;1.40;;
69170;SDS011;56279;47.902;12.308;2022-10-16T02:25:46;3.20;;;1.60;;
69170;SDS011;56279;47.902;12.308;2022-10-16T02:30:05;3.85;;;1.80;;
69170;SDS011;56279;47.902;12.308;2022-10-16T02:32:23;7.13;;;2.15;;
69170;SDS011;56279;47.902;12.308;2022-10-16T02:34:28;3.38;;;1.73;;
69170;SDS011;56279;47.902;12.308;2022-10-16T02:36:33;3.75;;;1.90;;
69170;SDS011;56279;47.902;12.308;2022-10-16T02:38:36;4.40;;;2.13;;
69170;SDS011;56279;47.902;12.308;2022-10-16T02:40:39;3.47;;;1.83;;
69170;SDS011;56279;47.902;12.308;2022-10-16T02:42:42;9.23;;;2.50;;
69170;SDS011;56279;47.902;12.308;2022-10-16T02:44:43;3.92;;;1.85;;
69170;SDS011;56279;47.902;12.308;2022-10-16T02:46:44;6.03;;;1.85;;
69170;SDS011;56279;47.902;12.308;2022-10-16T02:48:46;3.80;;;1.90;;
69170;SDS011;56279;47.902;12.308;2022-10-16T02:50:47;3.85;;;1.83;;
69170;SDS011;56279;47.902;12.308;2022-10-16T02:52:48;8.60;;;2.22;;
69170;SDS011;56279;47.902;12.308;2022-10-16T02:54:49;6.43;;;2.05;;
69170;SDS011;56279;47.902;12.308;2022-10-16T02:56:50;4.88;;;1.98;;
69170;SDS011;56279;47.902;12.308;2022-10-16T02:58:52;3.50;;;1.70;;
69170;SDS011;56279;47.902;12.308;2022-10-16T03:00:54;4.75;;;2.00;;
69170;SDS011;56279;47.902;12.308;2022-10-16T03:02:56;3.78;;;2.10;;
69170;SDS011;56279;47.902;12.308;2022-10-16T03:04:57;5.63;;;2.22;;
69170;SDS011;56279;47.902;12.308;2022-10-16T03:06:59;4.35;;;2.00;;
69170;SDS011;56279;47.902;12.308;2022-10-16T03:09:00;5.07;;;1.90;;
69170;SDS011;56279;47.902;12.308;2022-10-16T03:11:01;8.13;;;2.05;;
69170;SDS011;56279;47.902;12.308;2022-10-16T03:13:03;5.05;;;2.55;;
69170;SDS011;56279;47.902;12.308;2022-10-16T03:15:04;3.42;;;1.85;;
69170;SDS011;56279;47.902;12.308;2022-10-16T03:17:06;3.55;;;2.08;;
69170;SDS011;56279;47.902;12.308;2022-10-16T03:19:07;3.87;;;2.10;;
69170;SDS011;56279;47.902;12.308;2022-10-16T03:21:08;3.88;;;2.03;;
69170;SDS011;56279;47.902;12.308;2022-10-16T03:23:09;4.10;;;2.25;;
69170;SDS011;56279;47.902;12.308;2022-10-16T03:25:11;4.35;;;2.00;;
69170;SDS011;56279;47.902;12.308;2022-10-16T03:27:12;5.20;;;2.10;;
69170;SDS011;56279;47.902;12.308;2022-10-16T03:29:14;3.60;;;2.10;;
69170;SDS011;56279;47.902;12.308;2022-10-16T03:31:15;4.45;;;1.98;;
69170;SDS011;56279;47.902;12.308;2022-10-16T03:33:16;4.18;;;2.28;;
69170;SDS011;56279;47.902;12.308;2022-10-16T03:35:18;5.30;;;2.10;;
69170;SDS011;56279;47.902;12.308;2022-10-16T03:37:19;4.07;;;2.03;;
69170;SDS011;56279;47.902;12.308;2022-10-16T03:39:20;4.17;;;1.97;;
69170;SDS011;56279;47.902;12.308;2022-10-16T03:41:22;3.45;;;2.00;;
69170;SDS011;56279;47.902;12.308;2022-10-16T03:43:23;3.75;;;1.90;;
69170;SDS011;56279;47.902;12.308;2022-10-16T03:45:24;4.00;;;1.77;;
69170;SDS011;56279;47.902;12.308;2022-10-16T03:47:27;3.97;;;2.53;;
69170;SDS011;56279;47.902;12.308;2022-10-16T03:49:28;3.30;;;1.93;;
69170;SDS011;56279;47.902;12.308;2022-10-16T03:51:29;6.18;;;2.20;;
69170;SDS011;56279;47.902;12.308;2022-10-16T03:53:30;5.97;;;2.25;;
69170;SDS011;56279;47.902;12.308;2022-10-16T03:55:31;3.67;;;1.90;;
69170;SDS011;56279;47.902;12.308;2022-10-16T03:57:33;6.50;;;2.38;;
69170;SDS011;56279;47.902;12.308;2022-10-16T03:59:34;5.13;;;2.43;;
69170;SDS011;56279;47.902;12.308;2022-10-16T04:01:35;5.45;;;2.55;;
69170;SDS011;56279;47.902;12.308;2022-10-16T04:03:37;4.63;;;2.35;;
69170;SDS011;56279;47.902;12.308;2022-10-16T04:05:38;9.10;;;2.30;;
69170;SDS011;56279;47.902;12.308;2022-10-16T04:07:40;7.18;;;2.35;;
69170;SDS011;56279;47.902;12.308;2022-10-16T04:09:41;5.50;;;2.33;;
69170;SDS011;56279;47.902;12.308;2022-10-16T04:11:43;4.63;;;2.58;;
69170;SDS011;56279;47.902;12.308;2022-10-16T04:13:44;5.97;;;2.65;;
69170;SDS011;56279;47.902;12.308;2022-10-16T04:15:45;6.47;;;2.50;;
69170;SDS011;56279;47.902;12.308;2022-10-16T04:17:46;6.25;;;2.20;;
69170;SDS011;56279;47.902;12.308;2022-10-16T04:19:48;6.23;;;2.03;;
69170;SDS011;56279;47.902;12.308;2022-10-16T04:21:49;5.60;;;2.00;;
69170;SDS011;56279;47.902;12.308;2022-10-16T04:23:50;4.97;;;2.10;;
69170;SDS011;56279;47.902;12.308;2022-10-16T04:25:51;5.22;;;2.33;;
69170;SDS011;56279;47.902;12.308;2022-10-16T04:27:53;5.45;;;2.25;;
69170;SDS011;56279;47.902;12.308;2022-10-16T04:29:54;4.80;;;2.30;;
69170;SDS011;56279;47.902;12.308;2022-10-16T04:31:56;5.68;;;2.40;;
69170;SDS011;56279;47.902;12.308;2022-10-16T04:33:57;7.53;;;2.40;;
69170;SDS011;56279;47.902;12.308;2022-10-16T04:35:58;5.75;;;2.35;;
69170;SDS011;56279;47.902;12.308;2022-10-16T04:38:01;4.38;;;2.15;;
69170;SDS011;56279;47.902;12.308;2022-10-16T04:40:02;5.23;;;2.50;;
69170;SDS011;56279;47.902;12.308;2022-10-16T04:42:04;5.28;;;2.55;;
69170;SDS011;56279;47.902;12.308;2022-10-16T04:44:05;3.78;;;2.28;;
69170;SDS011;56279;47.902;12.308;2022-10-16T04:46:06;4.45;;;2.00;;
69170;SDS011;56279;47.902;12.308;2022-10-16T04:48:08;5.80;;;2.60;;
69170;SDS011;56279;47.902;12.308;2022-10-16T04:50:09;4.33;;;2.03;;
69170;SDS011;56279;47.902;12.308;2022-10-16T04:52:11;4.70;;;2.13;;
69170;SDS011;56279;47.902;12.308;2022-10-16T04:54:12;4.85;;;2.35;;
69170;SDS011;56279;47.902;12.308;2022-10-16T04:56:13;4.97;;;2.17;;
69170;SDS011;56279;47.902;12.308;2022-10-16T04:58:16;4.47;;;2.10;;
69170;SDS011;56279;47.902;12.308;2022-10-16T05:00:17;6.70;;;2.10;;
69170;SDS011;56279;47.902;12.308;2022-10-16T05:02:19;9.25;;;2.50;;
69170;SDS011;56279;47.902;12.308;2022-10-16T05:04:20;5.40;;;2.00;;
69170;SDS011;56279;47.902;12.308;2022-10-16T05:06:21;4.22;;;1.90;;
69170;SDS011;56279;47.902;12.308;2022-10-16T05:08:22;6.35;;;2.35;;
69170;SDS011;56279;47.902;12.308;2022-10-16T05:10:24;5.80;;;2.10;;
69170;SDS011;56279;47.902;12.308;2022-10-16T05:12:25;3.65;;;2.03;;
69170;SDS011;56279;47.902;12.308;2022-10-16T05:14:27;6.43;;;2.17;;
69170;SDS011;56279;47.902;12.308;2022-10-16T05:16:28;4.75;;;2.40;;
69170;SDS011;56279;47.902;12.308;2022-10-16T05:18:29;6.80;;;2.75;;
69170;SDS011;56279;47.902;12.308;2022-10-16T05:20:31;4.57;;;2.40;;
69170;SDS011;56279;47.902;12.308;2022-10-16T05:22:32;7.43;;;2.47;;
69170;SDS011;56279;47.902;12.308;2022-10-16T05:24:33;5.40;;;2.47;;
69170;SDS011;56279;47.902;12.308;2022-10-16T05:26:34;4.90;;;2.75;;
69170;SDS011;56279;47.902;12.308;2022-10-16T05:28:36;7.35;;;2.70;;
69170;SDS011;56279;47.902;12.308;2022-10-16T05:30:37;4.97;;;2.30;;
69170;SDS011;56279;47.902;12.308;2022-10-16T05:32:39;4.57;;;2.47;;
69170;SDS011;56279;47.902;12.308;2022-10-16T05:34:41;7.22;;;3.00;;
69170;SDS011;56279;47.902;12.308;2022-10-16T05:36:42;5.22;;;2.45;;
69170;SDS011;56279;47.902;12.308;2022-10-16T05:38:46;4.75;;;2.50;;
69170;SDS011;56279;47.902;12.308;2022-10-16T05:40:51;5.97;;;2.43;;
69170;SDS011;56279;47.902;12.308;2022-10-16T05:42:55;4.95;;;2.58;;
69170;SDS011;56279;47.902;12.308;2022-10-16T05:44:57;4.60;;;2.50;;
69170;SDS011;56279;47.902;12.308;2022-10-16T05:46:58;4.28;;;2.13;;
69170;SDS011;56279;47.902;12.308;2022-10-16T05:48:59;5.20;;;2.30;;
69170;SDS011;56279;47.902;12.308;2022-10-16T05:51:02;5.03;;;2.37;;
69170;SDS011;56279;47.902;12.308;2022-10-16T05:53:05;4.25;;;2.35;;
69170;SDS011;56279;47.902;12.308;2022-10-16T05:55:07;5.70;;;2.58;;
69170;SDS011;56279;47.902;12.308;2022-10-16T05:57:09;5.00;;;2.40;;
69170;SDS011;56279;47.902;12.308;2022-10-16T05:59:10;5.13;;;2.25;;
69170;SDS011;56279;47.902;12.308;2022-10-16T06:01:12;4.33;;;2.27;;
69170;SDS011;56279;47.902;12.308;2022-10-16T06:03:15;4.30;;;2.40;;
69170;SDS011;56279;47.902;12.308;2022-10-16T06:05:17;5.32;;;2.65;;
69170;SDS011;56279;47.902;12.308;2022-10-16T06:07:18;6.10;;;2.90;;
69170;SDS011;56279;47.902;12.308;2022-10-16T06:09:19;4.45;;;2.35;;
69170;SDS011;56279;47.902;12.308;2022-10-16T06:11:23;5.17;;;2.40;;
69170;SDS011;56279;47.902;12.308;2022-10-16T06:13:26;5.07;;;2.10;;
69170;SDS011;56279;47.902;12.308;2022-10-16T06:15:27;5.65;;;2.60;;
69170;SDS011;56279;47.902;12.308;2022-10-16T06:17:28;4.88;;;2.42;;
69170;SDS011;56279;47.902;12.308;2022-10-16T06:19:58;3.85;;;1.98;;
69170;SDS011;56279;47.902;12.308;2022-10-16T06:22:02;4.30;;;1.97;;
69170;SDS011;56279;47.902;12.308;2022-10-16T06:24:05;5.45;;;2.45;;
69170;SDS011;56279;47.902;12.308;2022-10-16T06:26:10;4.53;;;2.28;;
69170;SDS011;56279;47.902;12.308;2022-10-16T06:28:15;4.85;;;2.42;;
69170;SDS011;56279;47.902;12.308;2022-10-16T06:30:17;4.15;;;1.83;;
69170;SDS011;56279;47.902;12.308;2022-10-16T06:32:18;4.80;;;2.17;;
69170;SDS011;56279;47.902;12.308;2022-10-16T06:34:20;7.85;;;2.75;;
69170;SDS011;56279;47.902;12.308;2022-10-16T06:36:21;5.63;;;2.22;;
69170;SDS011;56279;47.902;12.308;2022-10-16T06:38:23;9.70;;;3.10;;
69170;SDS011;56279;47.902;12.308;2022-10-16T06:40:24;4.13;;;1.83;;
69170;SDS011;56279;47.902;12.308;2022-10-16T06:42:26;3.80;;;1.97;;
69170;SDS011;56279;47.902;12.308;2022-10-16T06:44:27;6.72;;;2.40;;
69170;SDS011;56279;47.902;12.308;2022-10-16T06:46:29;3.95;;;2.08;;
69170;SDS011;56279;47.902;12.308;2022-10-16T06:48:30;6.18;;;2.30;;
69170;SDS011;56279;47.902;12.308;2022-10-16T06:50:32;4.65;;;2.17;;
69170;SDS011;56279;47.902;12.308;2022-10-16T06:52:34;4.93;;;2.27;;
69170;SDS011;56279;47.902;12.308;2022-10-16T06:54:35;4.93;;;2.53;;
69170;SDS011;56279;47.902;12.308;2022-10-16T06:56:36;4.53;;;2.17;;
69170;SDS011;56279;47.902;12.308;2022-10-16T06:58:38;8.98;;;3.05;;
69170;SDS011;56279;47.902;12.308;2022-10-16T07:00:40;3.95;;;2.13;;
69170;SDS011;56279;47.902;12.308;2022-10-16T07:02:41;5.50;;;2.50;;
69170;SDS011;56279;47.902;12.308;2022-10-16T07:04:42;4.72;;;2.10;;
69170;SDS011;56279;47.902;12.308;2022-10-16T07:06:44;5.15;;;2.55;;
69170;SDS011;56279;47.902;12.308;2022-10-16T07:08:46;5.18;;;2.08;;
69170;SDS011;56279;47.902;12.308;2022-10-16T07:10:48;6.35;;;2.05;;
69170;SDS011;56279;47.902;12.308;2022-10-16T07:12:50;3.83;;;2.10;;
69170;SDS011;56279;47.902;12.308;2022-10-16T07:14:51;6.68;;;2.70;;
69170;SDS011;56279;47.902;12.308;2022-10-16T07:16:53;6.93;;;3.08;;
69170;SDS011;56279;47.902;12.308;2022-10-16T07:18:55;4.35;;;2.60;;
69170;SDS011;56279;47.902;12.308;2022-10-16T07:21:06;4.47;;;2.10;;
69170;SDS011;56279;47.902;12.308;2022-10-16T07:23:11;4.63;;;2.17;;
69170;SDS011;56279;47.902;12.308;2022-10-16T07:25:12;3.90;;;2.08;;
69170;SDS011;56279;47.902;12.308;2022-10-16T07:27:14;4.88;;;1.90;;
69170;SDS011;56279;47.902;12.308;2022-10-16T07:29:18;5.45;;;2.30;;
69170;SDS011;56279;47.902;12.308;2022-10-16T07:31:21;4.35;;;2.30;;
69170;SDS011;56279;47.902;12.308;2022-10-16T07:33:23;5.27;;;2.43;;
69170;SDS011;56279;47.902;12.308;2022-10-16T07:35:24;4.75;;;1.80;;
69170;SDS011;56279;47.902;12.308;2022-10-16T07:37:25;4.32;;;2.30;;
69170;SDS011;56279;47.902;12.308;2022-10-16T07:39:27;5.00;;;2.10;;
69170;SDS011;56279;47.902;12.308;2022-10-16T07:41:28;3.65;;;1.88;;
69170;SDS011;56279;47.902;12.308;2022-10-16T07:43:29;4.00;;;2.03;;
69170;SDS011;56279;47.902;12.308;2022-10-16T07:45:31;3.90;;;1.75;;
69170;SDS011;56279;47.902;12.308;2022-10-16T07:47:32;3.90;;;2.10;;
69170;SDS011;56279;47.902;12.308;2022-10-16T07:49:33;4.03;;;2.20;;
69170;SDS011;56279;47.902;12.308;2022-10-16T07:51:34;5.30;;;2.13;;
69170;SDS011;56279;47.902;12.308;2022-10-16T07:53:36;3.83;;;2.00;;
69170;SDS011;56279;47.902;12.308;2022-10-16T07:55:38;5.35;;;2.55;;
69170;SDS011;56279;47.902;12.308;2022-10-16T07:57:39;4.20;;;2.17;;
69170;SDS011;56279;47.902;12.308;2022-10-16T07:59:40;4.90;;;2.65;;
69170;SDS011;56279;47.902;12.308;2022-10-16T08:01:41;7.40;;;2.83;;
69170;SDS011;56279;47.902;12.308;2022-10-16T08:03:44;4.80;;;2.30;;
69170;SDS011;56279;47.902;12.308;2022-10-16T08:05:46;4.45;;;2.42;;
69170;SDS011;56279;47.902;12.308;2022-10-16T08:07:51;5.15;;;2.65;;
69170;SDS011;56279;47.902;12.308;2022-10-16T08:09:52;4.75;;;2.67;;
69170;SDS011;56279;47.902;12.308;2022-10-16T08:11:53;5.75;;;2.58;;
69170;SDS011;56279;47.902;12.308;2022-10-16T08:13:55;5.00;;;2.40;;
69170;SDS011;56279;47.902;12.308;2022-10-16T08:15:56;5.20;;;2.67;;
69170;SDS011;56279;47.902;12.308;2022-10-16T08:17:58;7.07;;;2.53;;
69170;SDS011;56279;47.902;12.308;2022-10-16T08:20:04;4.47;;;2.25;;
69170;SDS011;56279;47.902;12.308;2022-10-16T08:22:06;4.88;;;2.30;;
69170;SDS011;56279;47.902;12.308;2022-10-16T08:24:07;4.60;;;2.50;;
69170;SDS011;56279;47.902;12.308;2022-10-16T08:26:09;6.50;;;2.47;;
69170;SDS011;56279;47.902;12.308;2022-10-16T08:28:11;5.43;;;2.35;;
69170;SDS011;56279;47.902;12.308;2022-10-16T08:30:12;6.20;;;2.78;;
69170;SDS011;56279;47.902;12.308;2022-10-16T08:32:15;4.35;;;2.55;;
69170;SDS011;56279;47.902;12.308;2022-10-16T08:34:16;5.90;;;2.30;;
69170;SDS011;56279;47.902;12.308;2022-10-16T08:36:17;4.90;;;2.58;;
69170;SDS011;56279;47.902;12.308;2022-10-16T08:38:19;6.10;;;2.70;;
69170;SDS011;56279;47.902;12.308;2022-10-16T08:40:24;5.72;;;2.10;;
69170;SDS011;56279;47.902;12.308;2022-10-16T08:42:34;5.13;;;2.72;;
69170;SDS011;56279;47.902;12.308;2022-10-16T08:47:13;6.88;;;2.35;;
69170;SDS011;56279;47.902;12.308;2022-10-16T08:49:19;4.10;;;2.08;;
69170;SDS011;56279;47.902;12.308;2022-10-16T08:51:24;4.82;;;2.20;;
69170;SDS011;56279;47.902;12.308;2022-10-16T08:53:41;5.38;;;2.22;;
69170;SDS011;56279;47.902;12.308;2022-10-16T08:55:49;4.07;;;2.10;;
69170;SDS011;56279;47.902;12.308;2022-10-16T08:57:51;4.45;;;2.30;;
69170;SDS011;56279;47.902;12.308;2022-10-16T08:59:54;5.22;;;2.28;;
69170;SDS011;56279;47.902;12.308;2022-10-16T09:02:01;4.80;;;2.25;;
69170;SDS011;56279;47.902;12.308;2022-10-16T09:08:09;4.97;;;2.15;;
69170;SDS011;56279;47.902;12.308;2022-10-16T09:10:30;5.20;;;2.33;;
69170;SDS011;56279;47.902;12.308;2022-10-16T09:12:53;3.60;;;1.85;;
69170;SDS011;56279;47.902;12.308;2022-10-16T09:19:41;5.63;;;2.55;;
69170;SDS011;56279;47.902;12.308;2022-10-16T09:21:48;4.28;;;2.35;;
69170;SDS011;56279;47.902;12.308;2022-10-16T09:23:49;5.43;;;2.50;;
69170;SDS011;56279;47.902;12.308;2022-10-16T09:25:51;5.65;;;2.67;;
69170;SDS011;56279;47.902;12.308;2022-10-16T09:27:54;5.87;;;2.20;;
69170;SDS011;56279;47.902;12.308;2022-10-16T09:29:56;4.45;;;2.33;;
69170;SDS011;56279;47.902;12.308;2022-10-16T09:31:57;4.18;;;2.22;;
69170;SDS011;56279;47.902;12.308;2022-10-16T09:34:17;4.30;;;2.20;;
69170;SDS011;56279;47.902;12.308;2022-10-16T09:36:38;4.75;;;2.20;;
69170;SDS011;56279;47.902;12.308;2022-10-16T09:38:42;6.07;;;2.50;;
69170;SDS011;56279;47.902;12.308;2022-10-16T09:40:43;4.85;;;2.20;;
69170;SDS011;56279;47.902;12.308;2022-10-16T09:42:45;6.55;;;2.20;;
69170;SDS011;56279;47.902;12.308;2022-10-16T09:44:47;5.63;;;2.75;;
69170;SDS011;56279;47.902;12.308;2022-10-16T09:47:00;3.85;;;2.03;;
69170;SDS011;56279;47.902;12.308;2022-10-16T09:49:18;5.00;;;2.80;;
69170;SDS011;56279;47.902;12.308;2022-10-16T09:51:25;5.20;;;2.38;;
69170;SDS011;56279;47.902;12.308;2022-10-16T09:53:38;6.78;;;2.80;;
69170;SDS011;56279;47.902;12.308;2022-10-16T09:55:50;4.68;;;2.20;;
69170;SDS011;56279;47.902;12.308;2022-10-16T09:57:53;4.05;;;2.20;;
69170;SDS011;56279;47.902;12.308;2022-10-16T09:59:56;7.07;;;3.10;;
69170;SDS011;56279;47.902;12.308;2022-10-16T10:02:01;5.40;;;2.38;;
69170;SDS011;56279;47.902;12.308;2022-10-16T10:04:09;5.55;;;2.40;;
69170;SDS011;56279;47.902;12.308;2022-10-16T10:06:16;6.35;;;2.53;;
69170;SDS011;56279;47.902;12.308;2022-10-16T10:08:28;6.43;;;2.40;;
69170;SDS011;56279;47.902;12.308;2022-10-16T10:10:30;4.53;;;2.50;;
69170;SDS011;56279;47.902;12.308;2022-10-16T10:12:33;4.65;;;2.30;;
69170;SDS011;56279;47.902;12.308;2022-10-16T10:14:42;4.68;;;2.60;;
69170;SDS011;56279;47.902;12.308;2022-10-16T10:17:02;4.55;;;2.30;;
69170;SDS011;56279;47.902;12.308;2022-10-16T10:19:04;4.28;;;2.30;;
69170;SDS011;56279;47.902;12.308;2022-10-16T10:21:14;4.00;;;2.13;;
69170;SDS011;56279;47.902;12.308;2022-10-16T10:23:21;3.90;;;2.20;;
69170;SDS011;56279;47.902;12.308;2022-10-16T10:25:26;4.53;;;2.38;;
69170;SDS011;56279;47.902;12.308;2022-10-16T10:27:42;4.70;;;2.33;;
69170;SDS011;56279;47.902;12.308;2022-10-16T10:32:15;4.53;;;2.47;;
69170;SDS011;56279;47.902;12.308;2022-10-16T10:36:37;5.63;;;2.40;;
69170;SDS011;56279;47.902;12.308;2022-10-16T10:38:42;4.18;;;2.03;;
69170;SDS011;56279;47.902;12.308;2022-10-16T10:41:03;3.72;;;2.10;;
69170;SDS011;56279;47.902;12.308;2022-10-16T10:45:52;4.47;;;2.15;;
69170;SDS011;56279;47.902;12.308;2022-10-16T10:48:03;5.43;;;2.30;;
69170;SDS011;56279;47.902;12.308;2022-10-16T10:50:25;4.47;;;2.00;;
69170;SDS011;56279;47.902;12.308;2022-10-16T10:52:34;4.53;;;2.20;;
69170;SDS011;56279;47.902;12.308;2022-10-16T10:54:42;5.27;;;2.17;;
69170;SDS011;56279;47.902;12.308;2022-10-16T11:05:31;4.75;;;2.30;;
69170;SDS011;56279;47.902;12.308;2022-10-16T11:07:28;3.77;;;2.00;;
69170;SDS011;56279;47.902;12.308;2022-10-16T11:17:06;4.32;;;2.00;;
69170;SDS011;56279;47.902;12.308;2022-10-16T11:21:35;3.67;;;2.17;;
69170;SDS011;56279;47.902;12.308;2022-10-16T11:23:46;5.97;;;2.20;;
69170;SDS011;56279;47.902;12.308;2022-10-16T11:25:56;3.63;;;1.85;;
69170;SDS011;56279;47.902;12.308;2022-10-16T11:30:04;3.53;;;1.93;;
69170;SDS011;56279;47.902;12.308;2022-10-16T11:32:33;3.78;;;2.15;;
69170;SDS011;56279;47.902;12.308;2022-10-16T11:37:30;4.25;;;1.73;;
69170;SDS011;56279;47.902;12.308;2022-10-16T11:39:37;3.85;;;1.98;;
69170;SDS011;56279;47.902;12.308;2022-10-16T11:41:53;5.67;;;1.87;;
69170;SDS011;56279;47.902;12.308;2022-10-16T11:46:20;3.58;;;2.08;;
69170;SDS011;56279;47.902;12.308;2022-10-16T11:50:54;7.78;;;2.85;;
69170;SDS011;56279;47.902;12.308;2022-10-16T11:57:33;3.75;;;1.85;;
69170;SDS011;56279;47.902;12.308;2022-10-16T12:02:03;4.55;;;1.90;;
69170;SDS011;56279;47.902;12.308;2022-10-16T12:04:32;4.10;;;1.63;;
69170;SDS011;56279;47.902;12.308;2022-10-16T12:07:00;3.50;;;1.52;;
69170;SDS011;56279;47.902;12.308;2022-10-16T12:09:09;2.80;;;1.58;;
69170;SDS011;56279;47.902;12.308;2022-10-16T12:15:34;3.50;;;1.70;;
69170;SDS011;56279;47.902;12.308;2022-10-16T12:17:36;2.78;;;1.48;;
69170;SDS011;56279;47.902;12.308;2022-10-16T12:19:38;3.33;;;1.70;;
69170;SDS011;56279;47.902;12.308;2022-10-16T12:21:40;2.58;;;1.40;;
69170;SDS011;56279;47.902;12.308;2022-10-16T12:23:49;4.50;;;1.95;;
69170;SDS011;56279;47.902;12.308;2022-10-16T12:25:56;3.20;;;1.50;;
69170;SDS011;56279;47.902;12.308;2022-10-16T12:30:20;4.30;;;1.58;;
69170;SDS011;56279;47.902;12.308;2022-10-16T12:32:34;1.95;;;1.27;;
69170;SDS011;56279;47.902;12.308;2022-10-16T12:34:41;6.85;;;1.92;;
69170;SDS011;56279;47.902;12.308;2022-10-16T12:36:44;2.83;;;1.53;;
69170;SDS011;56279;47.902;12.308;2022-10-16T12:38:49;1.95;;;1.25;;
69170;SDS011;56279;47.902;12.308;2022-10-16T12:41:10;2.53;;;1.40;;
69170;SDS011;56279;47.902;12.308;2022-10-16T12:43:59;5.47;;;1.50;;
69170;SDS011;56279;47.902;12.308;2022-10-16T12:45:43;2.13;;;1.33;;
69170;SDS011;56279;47.902;12.308;2022-10-16T12:47:49;2.30;;;1.30;;
69170;SDS011;56279;47.902;12.308;2022-10-16T12:49:53;1.98;;;1.10;;
69170;SDS011;56279;47.902;12.308;2022-10-16T12:51:55;2.42;;;1.13;;
69170;SDS011;56279;47.902;12.308;2022-10-16T12:56:18;4.90;;;1.50;;
69170;SDS011;56279;47.902;12.308;2022-10-16T13:00:57;2.13;;;1.25;;
69170;SDS011;56279;47.902;12.308;2022-10-16T13:08:29;1.90;;;1.30;;
69170;SDS011;56279;47.902;12.308;2022-10-16T13:10:41;2.00;;;1.17;;
69170;SDS011;56279;47.902;12.308;2022-10-16T13:22:05;1.60;;;1.00;;
69170;SDS011;56279;47.902;12.308;2022-10-16T13:28:49;2.40;;;1.00;;
69170;SDS011;56279;47.902;12.308;2022-10-16T13:30:52;1.35;;;0.95;;
69170;SDS011;56279;47.902;12.308;2022-10-16T13:32:58;1.67;;;1.00;;
69170;SDS011;56279;47.902;12.308;2022-10-16T13:35:02;1.02;;;0.80;;
69170;SDS011;56279;47.902;12.308;2022-10-16T13:37:15;2.45;;;1.10;;
69170;SDS011;56279;47.902;12.308;2022-10-16T13:39:22;2.55;;;1.00;;
69170;SDS011;56279;47.902;12.308;2022-10-16T13:41:28;0.93;;;0.90;;
69170;SDS011;56279;47.902;12.308;2022-10-16T13:43:51;2.70;;;1.00;;
69170;SDS011;56279;47.902;12.308;2022-10-16T13:46:03;1.80;;;1.00;;
69170;SDS011;56279;47.902;12.308;2022-10-16T13:48:13;4.90;;;1.30;;
69170;SDS011;56279;47.902;12.308;2022-10-16T13:50:16;1.90;;;1.23;;
69170;SDS011;56279;47.902;12.308;2022-10-16T13:52:19;2.75;;;1.00;;
69170;SDS011;56279;47.902;12.308;2022-10-16T13:54:22;1.67;;;1.03;;